Angelica, Pennsylvania
Current Conditions -  °F | °C
As of 2:54 AM on Friday 19 Dec 2014 (Local Time) from KRDG Reporting Station
Overcast Overcast  
Wind Chill: 26°   Ceiling: 3000
Heat Index: 35°   Visibility: 10mi
Dew Point: 24°   Wind: 13mph
Humidity: 64%   Direction: 280°W
Pressure: 30.03"   Gusts: 20mph
Location:  40.2411°N, 75.9752°W
Report Text: KRDG 190754Z AUTO 28011G17KT 10SM OVC030 02/M04 A3003 RMK AO2 SLP178 T00171044
Loading
Personal Weather Stations






























Interactive Weather Map New forecast layout! Learn more

10-Day Weather Forecast

Advertisements
Track Severe Weather on mobile